Andover, Vermont
Current Conditions -  °F | °C
As of 5:17 AM on Sunday 26 Oct 2014 (Local Time) from KVSF Reporting Station
Haze Haze  
Wind Chill: 40°   Ceiling: 4200
Heat Index: 40°   Visibility: 3mi
Dew Point: 40°   Wind: 0mph
Humidity: 100%   Direction: NA
Pressure: 29.45"   Gusts: NA
Location:  43.2811°N, 72.6352°W
Report Text: KVSF 260917Z AUTO 00000KT 3SM BR SCT001 BKN042 OVC070 04/04 A2945 RMK AO2 T00440044
Loading
Personal Weather Stations






























Interactive Weather Map
Tropical Storm Tracking
New forecast layout! Learn more

10-Day Weather Forecast

Advertisements
Track Severe Weather on mobile